Time;durP1;ratioP1;P1;durP2;ratioP2;P2;SDS_P1;SDS_P2;PMS_P1;PMS_P2;Temp;Humidity;BMP_temperature;BMP_pressure;BME280_temperature;BME280_humidity;BME280_pressure;Samples;Min_cycle;Max_cycle;Signal;HPM_P1;HPM_P2
2022/02/27 00:02:21;;;;;;;7.80;3.40;;;;;;;3.11;47.29;101793.40;117368;1182;22157;-53
2022/02/27 00:04:49;;;;;;;5.90;2.70;;;;;;;3.10;47.21;101794.24;117396;1183;22616;-58
2022/02/27 00:07:17;;;;;;;7.00;3.00;;;;;;;3.08;47.31;101795.56;117337;1182;23069;-53
2022/02/27 00:09:47;;;;;;;8.20;2.90;;;;;;;3.08;47.23;101795.73;117341;1182;21855;-53
2022/02/27 00:12:16;;;;;;;6.30;2.80;;;;;;;3.08;47.25;101794.86;117320;1182;21927;-53
2022/02/27 00:14:44;;;;;;;4.60;2.50;;;;;;;3.09;47.45;101796.63;117332;1183;22922;-57
2022/02/27 00:17:12;;;;;;;9.30;3.50;;;;;;;3.08;47.37;101796.59;117384;1183;21878;-58
2022/02/27 00:19:40;;;;;;;6.10;3.10;;;;;;;3.06;47.40;101797.56;117371;1186;23462;-54
2022/02/27 00:22:09;;;;;;;9.10;4.40;;;;;;;3.05;47.18;101800.45;117317;1185;23432;-57
2022/02/27 00:24:37;;;;;;;8.70;3.10;;;;;;;3.03;47.38;101797.77;117337;1183;23563;-53
2022/02/27 00:27:05;;;;;;;6.80;3.00;;;;;;;3.02;47.46;101796.71;117314;1185;24140;-53
2022/02/27 00:29:33;;;;;;;8.90;3.40;;;;;;;3.03;47.38;101792.41;117338;1182;23599;-52
2022/02/27 00:32:02;;;;;;;7.10;3.10;;;;;;;3.05;47.46;101790.39;117343;1185;23665;-58
2022/02/27 00:34:31;;;;;;;7.00;3.30;;;;;;;3.06;47.31;101787.14;117351;1185;21847;-53
2022/02/27 00:36:59;;;;;;;9.50;3.20;;;;;;;3.07;47.41;101791.15;117339;1183;21845;-57
2022/02/27 00:39:28;;;;;;;6.70;3.10;;;;;;;3.07;47.47;101793.25;117417;1183;23434;-53
2022/02/27 00:41:56;;;;;;;9.30;3.50;;;;;;;3.06;47.43;101797.02;117319;1182;21900;-57
2022/02/27 00:44:24;;;;;;;8.30;3.40;;;;;;;3.04;47.52;101800.10;117342;1179;23462;-53
2022/02/27 00:46:52;;;;;;;10.90;4.40;;;;;;;3.05;47.43;101803.05;117251;1183;23839;-53
2022/02/27 00:49:21;;;;;;;11.00;3.60;;;;;;;3.04;47.23;101799.90;117312;1185;22606;-58
2022/02/27 00:51:51;;;;;;;9.30;4.10;;;;;;;3.03;47.39;101801.73;117356;1185;21866;-53
2022/02/27 00:54:19;;;;;;;8.70;3.70;;;;;;;3.01;47.43;101795.76;117345;1185;22556;-53
2022/02/27 00:56:48;;;;;;;7.90;3.10;;;;;;;2.96;47.39;101796.80;117347;1182;23438;-57
2022/02/27 00:59:16;;;;;;;5.90;3.40;;;;;;;2.93;47.42;101798.22;117307;1183;23462;-53
2022/02/27 01:01:45;;;;;;;9.70;3.30;;;;;;;2.88;47.37;101798.88;117336;1183;21920;-53
2022/02/27 01:04:14;;;;;;;7.00;3.30;;;;;;;2.84;47.38;101800.79;117371;1185;22552;-52
2022/02/27 01:06:42;;;;;;;6.30;2.80;;;;;;;2.80;47.37;101801.85;117346;1185;21858;-53
2022/02/27 01:09:10;;;;;;;7.20;3.00;;;;;;;2.77;47.35;101804.34;117365;1182;21851;-58
2022/02/27 01:11:38;;;;;;;8.00;2.80;;;;;;;2.75;47.49;101801.10;117379;1182;23435;-53
2022/02/27 01:14:07;;;;;;;6.50;3.00;;;;;;;2.71;47.33;101802.34;117378;1182;23433;-58
2022/02/27 01:16:47;;;;;;;5.80;2.70;;;;;;;2.69;47.38;101804.98;117317;1182;23532;-58
2022/02/27 01:19:15;;;;;;;4.70;2.40;;;;;;;2.65;47.47;101801.58;117357;1183;24148;-56
2022/02/27 01:21:43;;;;;;;6.20;2.60;;;;;;;2.62;47.40;101805.45;117328;1183;22817;-53
2022/02/27 01:24:12;;;;;;;6.00;2.80;;;;;;;2.58;47.54;101807.17;117357;1182;21869;-58
2022/02/27 01:26:40;;;;;;;9.40;2.80;;;;;;;2.53;47.34;101812.48;117324;1182;24148;-53
2022/02/27 01:29:10;;;;;;;7.00;2.90;;;;;;;2.50;47.52;101814.45;117362;1182;23567;-53
2022/02/27 01:31:38;;;;;;;8.30;2.80;;;;;;;2.49;47.40;101812.33;117344;1182;23472;-58
2022/02/27 01:34:07;;;;;;;10.70;3.10;;;;;;;2.48;47.45;101811.56;117347;1185;21880;-53
2022/02/27 01:36:35;;;;;;;5.40;2.80;;;;;;;2.44;47.65;101812.42;117411;1182;23363;-53
2022/02/27 01:39:03;;;;;;;4.90;2.50;;;;;;;2.41;47.53;101816.84;117371;1182;23459;-58
2022/02/27 01:41:32;;;;;;;7.70;3.00;;;;;;;2.40;47.41;101817.44;117338;1182;23433;-53
2022/02/27 01:44:00;;;;;;;6.30;2.60;;;;;;;2.37;47.50;101813.55;117240;1183;23438;-53
2022/02/27 01:46:28;;;;;;;4.70;2.60;;;;;;;2.38;47.62;101817.73;117349;1185;23634;-54
2022/02/27 01:48:57;;;;;;;7.00;2.90;;;;;;;2.37;47.63;101820.11;117326;1182;21867;-53
2022/02/27 01:51:25;;;;;;;7.10;2.90;;;;;;;2.34;47.47;101823.27;117370;1185;23459;-52
2022/02/27 01:53:53;;;;;;;5.70;2.80;;;;;;;2.31;47.55;101823.98;117283;1186;23433;-52
2022/02/27 01:56:21;;;;;;;7.40;3.50;;;;;;;2.29;47.60;101824.59;117363;1182;23445;-58
2022/02/27 01:58:49;;;;;;;7.30;3.00;;;;;;;2.27;47.45;101828.51;117363;1182;21858;-52
2022/02/27 02:01:18;;;;;;;8.20;3.70;;;;;;;2.25;47.82;101829.80;117330;1182;23544;-57
2022/02/27 02:03:46;;;;;;;8.30;3.00;;;;;;;2.23;47.69;101831.09;117382;1182;22667;-52
2022/02/27 02:06:15;;;;;;;6.10;2.80;;;;;;;2.19;47.72;101836.81;117350;1182;23547;-52
2022/02/27 02:08:44;;;;;;;7.50;3.20;;;;;;;2.15;47.80;101838.88;117405;1185;22177;-52
2022/02/27 02:11:12;;;;;;;6.20;2.90;;;;;;;2.10;47.68;101839.65;117291;1182;21981;-58
2022/02/27 02:13:42;;;;;;;5.60;2.90;;;;;;;2.03;47.53;101837.99;117432;1183;22623;-53
2022/02/27 02:16:10;;;;;;;8.60;3.20;;;;;;;2.00;47.73;101839.39;117363;1182;22934;-53
2022/02/27 02:18:39;;;;;;;6.60;2.90;;;;;;;1.98;47.54;101842.61;117381;1185;21864;-57
2022/02/27 02:21:07;;;;;;;8.90;4.10;;;;;;;1.98;47.61;101850.02;117335;1186;22204;-57
2022/02/27 02:23:35;;;;;;;6.00;2.40;;;;;;;1.97;47.63;101853.29;117412;1183;23462;-53
2022/02/27 02:26:04;;;;;;;7.90;3.20;;;;;;;1.97;47.76;101854.15;117313;1183;22546;-53
2022/02/27 02:28:32;;;;;;;9.20;3.10;;;;;;;1.96;47.91;101854.59;117368;1186;21901;-57
2022/02/27 02:31:00;;;;;;;7.60;3.30;;;;;;;1.96;47.82;101857.23;117371;1185;23553;-57
2022/02/27 02:33:37;;;;;;;6.10;3.50;;;;;;;1.99;47.87;101858.39;117341;1183;21863;-53
2022/02/27 02:36:06;;;;;;;7.20;2.90;;;;;;;2.00;47.97;101859.83;117338;1182;22985;-56
2022/02/27 02:38:34;;;;;;;8.20;3.10;;;;;;;2.02;47.82;101862.34;117421;1182;23077;-57
2022/02/27 02:41:02;;;;;;;7.50;3.20;;;;;;;2.02;47.67;101859.77;117402;1182;23462;-53
2022/02/27 02:43:30;;;;;;;6.90;2.80;;;;;;;2.03;47.90;101857.73;117364;1182;23554;-53
2022/02/27 02:45:58;;;;;;;7.60;3.40;;;;;;;2.02;47.69;101860.45;117332;1182;23443;-53
2022/02/27 02:48:28;;;;;;;6.20;3.00;;;;;;;2.00;47.85;101863.97;117387;1185;21902;-57
2022/02/27 02:50:57;;;;;;;7.30;2.90;;;;;;;1.98;47.77;101863.74;117369;1182;22922;-52
2022/02/27 02:53:35;;;;;;;7.00;3.10;;;;;;;1.97;47.80;101868.86;117389;1182;23563;-53
2022/02/27 02:56:05;;;;;;;6.00;2.90;;;;;;;1.94;47.81;101869.27;117310;1183;21852;-57
2022/02/27 02:58:35;;;;;;;7.50;3.00;;;;;;;1.91;47.84;101870.85;117306;1186;22821;-57
2022/02/27 03:01:03;;;;;;;5.70;2.90;;;;;;;1.89;47.83;101873.70;117367;1183;21855;-53
2022/02/27 03:03:32;;;;;;;6.90;2.60;;;;;;;1.85;47.65;101873.34;117399;1182;22250;-57
2022/02/27 03:06:00;;;;;;;7.40;2.80;;;;;;;1.83;47.61;101873.06;117329;1181;23433;-53
2022/02/27 03:08:29;;;;;;;7.80;3.20;;;;;;;1.81;48.02;101871.90;117430;1185;24132;-53
2022/02/27 03:10:57;;;;;;;9.70;3.50;;;;;;;1.78;47.71;101871.61;117329;1183;22882;-52
2022/02/27 03:13:25;;;;;;;9.70;3.20;;;;;;;1.76;47.72;101875.36;117386;1185;21959;-57
2022/02/27 03:15:54;;;;;;;8.50;3.10;;;;;;;1.74;47.78;101875.59;117352;1182;23434;-54
2022/02/27 03:18:22;;;;;;;9.60;3.30;;;;;;;1.71;47.95;101877.88;117392;1185;22368;-52
2022/02/27 03:20:50;;;;;;;5.70;3.20;;;;;;;1.74;48.04;101878.35;117356;1185;24147;-57
2022/02/27 03:23:18;;;;;;;6.90;2.80;;;;;;;1.77;47.70;101876.75;117368;1183;21873;-52
2022/02/27 03:25:47;;;;;;;9.20;3.40;;;;;;;1.77;47.81;101879.56;117388;1184;23433;-57
2022/02/27 03:28:15;;;;;;;8.40;3.20;;;;;;;1.77;47.91;101878.15;117402;1180;23459;-57
2022/02/27 03:30:43;;;;;;;6.40;2.30;;;;;;;1.74;47.66;101877.86;117321;1188;21875;-52
2022/02/27 03:33:12;;;;;;;6.80;3.10;;;;;;;1.73;47.86;101881.77;117304;1182;24239;-51
2022/02/27 03:35:41;;;;;;;11.20;4.90;;;;;;;1.74;48.06;101884.75;117297;1183;23563;-57
2022/02/27 03:38:12;;;;;;;5.00;2.70;;;;;;;1.75;48.04;101883.41;117344;1185;24278;-53
2022/02/27 03:40:40;;;;;;;10.40;3.10;;;;;;;1.72;47.66;101883.95;117328;1183;22633;-57
2022/02/27 03:43:08;;;;;;;5.60;2.50;;;;;;;1.69;47.82;101884.70;117307;1182;24213;-57
2022/02/27 03:45:37;;;;;;;7.50;3.30;;;;;;;1.66;47.94;101885.92;117345;1185;21859;-57
2022/02/27 03:48:05;;;;;;;5.40;3.10;;;;;;;1.65;48.05;101889.67;117366;1182;23443;-57
2022/02/27 03:50:33;;;;;;;6.00;2.60;;;;;;;1.66;47.98;101887.98;117358;1180;22955;-57
2022/02/27 03:53:01;;;;;;;7.80;3.40;;;;;;;1.65;47.71;101891.38;117260;1185;23448;-57
2022/02/27 03:55:29;;;;;;;10.20;3.40;;;;;;;1.62;48.02;101888.36;117323;1182;21852;-58
2022/02/27 03:57:58;;;;;;;6.70;2.60;;;;;;;1.61;47.91;101886.01;117357;1182;23459;-57
2022/02/27 04:00:26;;;;;;;8.00;3.00;;;;;;;1.57;47.82;101884.11;117373;1183;22645;-57
2022/02/27 04:02:55;;;;;;;7.90;3.10;;;;;;;1.54;48.14;101881.39;117496;1185;21870;-57
2022/02/27 04:05:24;;;;;;;5.10;2.50;;;;;;;1.52;47.90;101885.77;117335;1185;21858;-58
2022/02/27 04:07:52;;;;;;;8.10;3.20;;;;;;;1.49;48.04;101880.11;117408;1182;22915;-58
2022/02/27 04:10:21;;;;;;;6.60;2.90;;;;;;;1.49;47.94;101881.66;117283;1183;23436;-53
2022/02/27 04:12:49;;;;;;;8.90;3.10;;;;;;;1.48;47.99;101883.52;117381;1185;21900;-53
2022/02/27 04:15:37;;;;;;;10.30;3.50;;;;;;;1.45;48.04;101883.73;117290;1180;21876;-58
2022/02/27 04:18:05;;;;;;;6.00;2.80;;;;;;;1.43;48.02;101887.95;117343;1182;24180;-53
2022/02/27 04:20:34;;;;;;;6.20;3.00;;;;;;;1.40;47.82;101884.33;117321;1185;24153;-53
2022/02/27 04:23:02;;;;;;;7.40;3.20;;;;;;;1.37;48.21;101883.67;117277;1183;23563;-57
2022/02/27 04:25:31;;;;;;;7.80;2.70;;;;;;;1.37;48.09;101884.52;117317;1182;22912;-53
2022/02/27 04:27:59;;;;;;;6.20;2.90;;;;;;;1.34;48.01;101887.30;117325;1181;22837;-53
2022/02/27 04:30:27;;;;;;;8.00;2.80;;;;;;;1.32;47.96;101889.66;117380;1182;24155;-53
2022/02/27 04:32:55;;;;;;;7.10;3.50;;;;;;;1.31;48.11;101893.08;117260;1181;21896;-53
2022/02/27 04:35:24;;;;;;;8.10;2.90;;;;;;;1.32;48.28;101893.64;117243;1185;23513;-53
2022/02/27 04:37:52;;;;;;;7.40;2.70;;;;;;;1.32;48.10;101897.64;117351;1184;24135;-58
2022/02/27 04:40:20;;;;;;;8.10;3.50;;;;;;;1.32;48.15;101897.95;117333;1183;23433;-57
2022/02/27 04:42:49;;;;;;;6.20;2.80;;;;;;;1.32;48.37;101898.81;117331;1183;21871;-57
2022/02/27 04:45:17;;;;;;;25.20;5.30;;;;;;;1.31;48.08;101901.35;117343;1185;24137;-54
2022/02/27 04:47:45;;;;;;;11.40;3.30;;;;;;;1.35;48.19;101904.48;117360;1185;23462;-54
2022/02/27 04:50:13;;;;;;;7.10;2.60;;;;;;;1.42;48.33;101901.89;117330;1183;23423;-54
2022/02/27 04:52:42;;;;;;;8.90;3.10;;;;;;;1.50;48.42;101900.54;117306;1182;22282;-58
2022/02/27 04:55:10;;;;;;;8.40;3.00;;;;;;;1.53;48.27;101900.55;117370;1185;21853;-53
2022/02/27 04:57:39;;;;;;;9.90;3.10;;;;;;;1.55;48.64;101901.30;117337;1182;23448;-58
2022/02/27 05:00:08;;;;;;;14.30;3.50;;;;;;;1.56;48.39;101909.48;117300;1184;24156;-58
2022/02/27 05:02:37;;;;;;;13.00;4.60;;;;;;;1.57;48.46;101909.55;117403;1180;22914;-53
2022/02/27 05:05:06;;;;;;;7.80;2.90;;;;;;;1.60;48.25;101908.65;117326;1188;21867;-58
2022/02/27 05:07:34;;;;;;;8.80;3.00;;;;;;;1.61;48.38;101909.06;117350;1185;21854;-58
2022/02/27 05:10:05;;;;;;;12.60;3.90;;;;;;;1.61;48.37;101909.95;117304;1184;23560;-58
2022/02/27 05:12:33;;;;;;;7.70;2.90;;;;;;;1.61;48.29;101908.35;118802;1184;22634;-53
2022/02/27 05:15:01;;;;;;;12.00;3.40;;;;;;;1.62;48.43;101910.17;117336;1183;23454;-59
2022/02/27 05:17:35;;;;;;;23.00;4.20;;;;;;;1.65;48.34;101911.83;117307;1183;23537;-58
2022/02/27 05:20:04;;;;;;;23.20;3.90;;;;;;;1.68;48.36;101910.73;117346;1184;22810;-55
2022/02/27 05:22:33;;;;;;;15.30;3.20;;;;;;;1.72;48.56;101913.41;117339;1181;22912;-54
2022/02/27 05:25:01;;;;;;;13.90;3.40;;;;;;;1.80;48.61;101913.40;117329;1186;24163;-58
2022/02/27 05:27:30;;;;;;;9.10;3.10;;;;;;;1.76;48.52;101916.36;117420;1185;23436;-53
2022/02/27 05:29:58;;;;;;;7.90;3.20;;;;;;;1.77;48.69;101918.64;117354;1182;23529;-58
2022/02/27 05:32:26;;;;;;;9.80;3.40;;;;;;;1.81;48.76;101921.95;117386;1185;24730;-53
2022/02/27 05:34:54;;;;;;;8.40;3.50;;;;;;;1.86;48.85;101924.64;117342;1182;24145;-58
2022/02/27 05:37:23;;;;;;;12.20;3.80;;;;;;;1.90;49.14;101926.18;117346;1184;24160;-54
2022/02/27 05:39:51;;;;;;;8.30;3.40;;;;;;;1.96;48.99;101923.19;117360;1182;24163;-54
2022/02/27 05:42:19;;;;;;;8.50;4.10;;;;;;;2.03;49.15;101919.34;117406;1185;23438;-53
2022/02/27 05:44:49;;;;;;;9.10;3.60;;;;;;;2.09;49.24;101920.88;117303;1182;23586;-54
2022/02/27 05:47:18;;;;;;;8.60;3.00;;;;;;;2.18;49.09;101924.92;117356;1185;21901;-58
2022/02/27 05:49:46;;;;;;;8.70;3.70;;;;;;;2.27;49.24;101925.13;117336;1182;23538;-58
2022/02/27 05:52:18;;;;;;;19.50;5.70;;;;;;;2.35;49.26;101930.05;117194;1184;23536;-58
2022/02/27 05:54:46;;;;;;;10.80;4.20;;;;;;;2.54;49.33;101930.19;117341;1185;21858;-58
2022/02/27 05:57:15;;;;;;;42.10;20.80;;;;;;;2.67;49.25;101930.27;117338;1182;21860;-53
2022/02/27 05:59:43;;;;;;;64.50;46.20;;;;;;;2.80;49.40;101934.46;117348;1185;23463;-58
2022/02/27 06:02:12;;;;;;;28.90;19.70;;;;;;;2.93;49.31;101934.34;117358;1182;22929;-54
2022/02/27 06:04:41;;;;;;;50.10;36.30;;;;;;;3.06;49.56;101943.08;117328;1185;23577;-58
2022/02/27 06:07:09;;;;;;;17.60;12.80;;;;;;;3.20;49.50;101944.36;117301;1183;23563;-59
2022/02/27 06:09:45;;;;;;;11.30;6.90;;;;;;;3.32;49.62;101942.24;117298;1185;24238;-58
2022/02/27 06:12:14;;;;;;;9.50;5.30;;;;;;;3.44;49.68;101942.92;117344;1186;23582;-58
2022/02/27 06:14:44;;;;;;;13.80;6.90;;;;;;;3.57;49.62;101942.59;117363;1183;22815;-55
2022/02/27 06:17:12;;;;;;;15.50;5.90;;;;;;;3.71;49.65;101944.92;117337;1185;23435;-57
2022/02/27 06:19:40;;;;;;;8.80;4.20;;;;;;;3.87;49.73;101945.71;117354;1182;22731;-54
2022/02/27 06:22:09;;;;;;;11.20;4.20;;;;;;;4.03;49.66;101942.73;117142;1186;23577;-54
2022/02/27 06:24:37;;;;;;;9.70;4.50;;;;;;;4.17;49.66;101940.66;117323;1183;21942;-55
2022/02/27 06:27:05;;;;;;;12.60;4.50;;;;;;;4.33;49.83;101940.22;117392;1185;21943;-55
2022/02/27 06:29:33;;;;;;;8.00;4.20;;;;;;;4.53;49.96;101939.08;117388;1185;21871;-55
2022/02/27 06:32:03;;;;;;;15.20;5.00;;;;;;;4.72;49.95;101943.77;117265;1182;23643;-55
2022/02/27 06:34:31;;;;;;;18.00;4.80;;;;;;;4.88;50.01;101943.48;117259;1185;21858;-55
2022/02/27 06:36:59;;;;;;;13.10;5.20;;;;;;;5.05;49.96;101949.11;117237;1183;24261;-57
2022/02/27 06:39:28;;;;;;;15.60;5.90;;;;;;;5.23;50.17;101952.88;117355;1181;23595;-58
2022/02/27 06:41:58;;;;;;;11.70;4.90;;;;;;;5.38;50.18;101956.16;117277;1182;23487;-55
2022/02/27 06:44:26;;;;;;;6.90;4.00;;;;;;;5.48;49.82;101954.95;117315;1183;23611;-58
2022/02/27 06:46:56;;;;;;;7.80;3.80;;;;;;;5.60;49.93;101956.56;117346;1182;24266;-55
2022/02/27 06:49:26;;;;;;;7.70;3.60;;;;;;;5.73;50.09;101959.25;117304;1180;22919;-55
2022/02/27 06:51:54;;;;;;;12.40;4.10;;;;;;;5.89;50.11;101962.24;117374;1185;22731;-58
2022/02/27 06:54:23;;;;;;;9.90;4.50;;;;;;;6.07;50.31;101963.17;117548;1185;21857;-55
2022/02/27 06:56:52;;;;;;;12.20;6.10;;;;;;;6.24;50.42;101960.39;117326;1184;23635;-56
2022/02/27 06:59:20;;;;;;;12.10;6.50;;;;;;;6.38;50.29;101966.23;117303;1183;24157;-58
2022/02/27 07:01:49;;;;;;;11.30;5.70;;;;;;;6.48;50.04;101963.90;117387;1184;23440;-56
2022/02/27 07:04:18;;;;;;;7.80;4.00;;;;;;;6.62;49.98;101961.38;117335;1182;24261;-55
2022/02/27 07:06:46;;;;;;;10.40;4.30;;;;;;;6.87;50.45;101954.90;117326;1185;24192;-56
2022/02/27 07:09:15;;;;;;;8.10;3.90;;;;;;;7.11;50.34;101949.98;117359;1185;23197;-59
2022/02/27 07:11:47;;;;;;;8.90;4.20;;;;;;;7.25;50.26;101946.16;117355;1182;22912;-59
2022/02/27 07:14:15;;;;;;;8.20;4.30;;;;;;;7.39;50.19;101941.64;117321;1184;22930;-55
2022/02/27 07:17:03;;;;;;;9.30;4.20;;;;;;;7.58;50.66;101934.95;117335;1185;21854;-54
2022/02/27 07:19:33;;;;;;;12.10;3.90;;;;;;;7.77;50.54;101929.99;117315;1181;23553;-57
2022/02/27 07:22:04;;;;;;;10.60;4.20;;;;;;;7.96;50.37;101930.27;117275;1184;21857;-55
2022/02/27 07:24:31;;;;;;;6.60;3.40;;;;;;;8.13;50.38;101925.95;117289;1181;22912;-55
2022/02/27 07:27:00;;;;;;;13.90;3.90;;;;;;;8.29;50.45;101925.77;117328;1183;22520;-55
2022/02/27 07:29:31;;;;;;;8.20;3.50;;;;;;;8.44;50.43;101922.59;117261;1184;21858;-55
2022/02/27 07:32:00;;;;;;;7.40;3.30;;;;;;;8.56;50.44;101919.38;117432;1185;21840;-55
2022/02/27 07:34:29;;;;;;;12.30;3.40;;;;;;;8.70;50.53;101913.54;117341;1185;23541;-59
2022/02/27 07:37:06;;;;;;;5.60;3.40;;;;;;;8.90;50.36;101909.36;117327;1181;24149;-55
2022/02/27 07:39:34;;;;;;;9.70;4.10;;;;;;;9.08;50.58;101905.33;117294;1182;23515;-55
2022/02/27 07:42:03;;;;;;;6.90;3.60;;;;;;;9.30;50.58;101907.83;117291;1182;22655;-54
2022/02/27 07:44:31;;;;;;;6.10;3.80;;;;;;;9.49;50.45;101911.11;117352;1184;21855;-58
2022/02/27 07:47:00;;;;;;;11.20;4.50;;;;;;;9.72;50.60;101913.25;117390;1185;24172;-58
2022/02/27 07:49:28;;;;;;;6.70;3.70;;;;;;;9.95;50.55;101906.74;117373;1183;23334;-55
2022/02/27 07:51:56;;;;;;;8.80;5.70;;;;;;;10.18;50.61;101909.88;117347;1185;23528;-56
2022/02/27 07:54:26;;;;;;;26.50;8.80;;;;;;;10.44;50.59;101903.23;117327;1185;22948;-55
2022/02/27 07:56:55;;;;;;;9.40;5.40;;;;;;;10.59;50.42;101907.81;117295;1185;23455;-56
2022/02/27 07:59:23;;;;;;;10.00;5.90;;;;;;;10.74;50.55;101905.89;117414;1185;22930;-58
2022/02/27 08:01:51;;;;;;;7.70;3.80;;;;;;;10.95;50.45;101905.40;117301;1183;22568;-56
2022/02/27 08:04:22;;;;;;;7.30;4.40;;;;;;;11.20;50.35;101903.55;117319;1182;21856;-56
2022/02/27 08:06:51;;;;;;;8.10;3.90;;;;;;;11.44;50.44;101907.80;117320;1185;24219;-58
2022/02/27 08:09:19;;;;;;;6.60;3.20;;;;;;;11.63;50.36;101906.55;117348;1181;23540;-57
2022/02/27 08:11:49;;;;;;;8.10;3.20;;;;;;;11.79;50.33;101910.36;117384;1182;23445;-55
2022/02/27 08:14:17;;;;;;;6.40;3.10;;;;;;;11.93;50.27;101908.70;117461;1182;22783;-58
2022/02/27 08:16:45;;;;;;;6.20;3.20;;;;;;;12.08;50.18;101906.02;117358;1182;23376;-57
2022/02/27 08:19:14;;;;;;;5.70;3.00;;;;;;;12.19;50.06;101902.20;117313;1176;23464;-58
2022/02/27 08:21:43;;;;;;;5.80;2.60;;;;;;;12.32;50.16;101905.08;117419;1184;23161;-56
2022/02/27 08:24:11;;;;;;;14.50;7.50;;;;;;;12.43;50.11;101902.31;117370;1185;21855;-59
2022/02/27 08:26:39;;;;;;;8.60;4.70;;;;;;;12.53;49.83;101906.23;117318;1185;23437;-56
2022/02/27 08:29:08;;;;;;;6.70;3.00;;;;;;;12.61;49.77;101903.44;118304;1184;23550;-57
2022/02/27 08:31:42;;;;;;;14.40;8.10;;;;;;;12.73;49.86;101899.96;117348;1185;21866;-57
2022/02/27 08:34:11;;;;;;;8.00;2.90;;;;;;;12.95;50.00;101898.95;117325;1184;24170;-57
2022/02/27 08:36:39;;;;;;;5.30;2.30;;;;;;;13.21;50.04;101896.71;117408;1182;23625;-57
2022/02/27 08:39:09;;;;;;;4.80;2.60;;;;;;;13.46;49.95;101894.10;117349;1181;23593;-56
2022/02/27 08:41:39;;;;;;;5.10;2.40;;;;;;;13.70;49.63;101890.21;117365;1184;22314;-57
2022/02/27 08:44:07;;;;;;;3.30;1.90;;;;;;;13.92;49.57;101890.02;117381;1184;23504;-55
2022/02/27 08:46:36;;;;;;;4.60;1.90;;;;;;;14.06;49.43;101889.80;117380;1181;23113;-56
2022/02/27 08:49:06;;;;;;;6.20;2.20;;;;;;;14.20;49.42;101889.39;117344;1183;21916;-55
2022/02/27 08:51:34;;;;;;;3.50;2.10;;;;;;;14.33;49.25;101884.94;117313;1181;24846;-55
2022/02/27 08:54:03;;;;;;;6.20;2.50;;;;;;;14.46;49.15;101881.53;117296;1182;23467;-58
2022/02/27 08:56:32;;;;;;;6.70;3.40;;;;;;;14.59;49.07;101878.98;117319;1185;23574;-55
2022/02/27 08:59:00;;;;;;;7.70;2.60;;;;;;;14.65;48.91;101874.90;117386;1185;21857;-58
2022/02/27 09:01:29;;;;;;;8.20;2.80;;;;;;;14.75;49.05;101873.64;117319;1185;24217;-55
2022/02/27 09:03:58;;;;;;;10.00;3.70;;;;;;;14.85;49.03;101868.46;117376;1182;23460;-55
2022/02/27 09:06:26;;;;;;;7.40;4.20;;;;;;;14.91;48.80;101861.00;117304;1184;23436;-55
2022/02/27 09:08:54;;;;;;;6.60;3.10;;;;;;;14.93;48.59;101862.76;117328;1185;23441;-55
2022/02/27 09:11:22;;;;;;;4.30;2.10;;;;;;;14.87;48.45;101856.06;117285;1185;22896;-55
2022/02/27 09:13:51;;;;;;;6.50;3.20;;;;;;;14.95;48.65;101852.85;117375;1182;24135;-58
2022/02/27 09:16:20;;;;;;;9.90;6.10;;;;;;;15.08;48.66;101850.45;117447;1185;21857;-54
2022/02/27 09:18:48;;;;;;;9.60;4.90;;;;;;;15.21;48.50;101849.45;117383;1184;21864;-55
2022/02/27 09:21:16;;;;;;;17.90;13.20;;;;;;;15.36;48.59;101839.62;117450;1182;23356;-54
2022/02/27 09:23:45;;;;;;;6.30;3.40;;;;;;;15.52;48.48;101845.13;117334;1182;21859;-55
2022/02/27 09:26:13;;;;;;;5.30;2.20;;;;;;;15.66;48.49;101840.92;117327;1185;23696;-55
2022/02/27 09:28:54;;;;;;;4.10;2.10;;;;;;;15.84;48.35;101835.97;117292;1183;24229;-57
2022/02/27 09:31:22;;;;;;;3.80;1.10;;;;;;;15.98;48.18;101829.46;117375;1184;24258;-57
2022/02/27 09:33:53;;;;;;;4.00;1.70;;;;;;;16.06;47.78;101830.61;117252;1180;23493;-57
2022/02/27 09:36:26;;;;;;;3.00;1.40;;;;;;;16.08;47.67;101824.91;117256;1185;23532;-57
2022/02/27 09:38:54;;;;;;;4.10;1.90;;;;;;;16.12;47.55;101820.09;117367;1185;21859;-57
2022/02/27 09:41:23;;;;;;;5.30;1.30;;;;;;;16.19;47.71;101810.26;117377;1184;21858;-56
2022/02/27 09:43:53;;;;;;;5.20;1.30;;;;;;;16.34;47.61;101815.38;117392;1185;23525;-57
2022/02/27 09:46:21;;;;;;;3.80;1.10;;;;;;;16.45;47.43;101811.67;117367;1185;21846;-56
2022/02/27 09:48:50;;;;;;;3.40;1.40;;;;;;;16.58;47.42;101812.04;117361;1183;21876;-56
2022/02/27 09:51:19;;;;;;;4.00;1.30;;;;;;;16.69;47.41;101808.32;117332;1183;23624;-56
2022/02/27 09:53:47;;;;;;;2.30;1.10;;;;;;;16.76;47.11;101808.23;117361;1183;21901;-56
2022/02/27 09:56:17;;;;;;;3.00;1.40;;;;;;;16.72;46.83;101802.45;117379;1184;22916;-57
2022/02/27 09:58:45;;;;;;;4.90;1.80;;;;;;;16.56;46.46;101795.56;117369;1185;23653;-56
2022/02/27 10:01:15;;;;;;;4.20;1.40;;;;;;;16.38;46.57;101789.63;117463;1183;23696;-56
2022/02/27 10:03:44;;;;;;;4.40;1.60;;;;;;;16.30;46.76;101787.27;117312;1185;22651;-57
2022/02/27 10:06:18;;;;;;;4.50;1.40;;;;;;;16.41;47.07;101784.27;117234;1182;24266;-58
2022/02/27 10:08:48;;;;;;;5.80;1.40;;;;;;;16.55;46.86;101788.86;117341;1184;23000;-58
2022/02/27 10:11:18;;;;;;;4.00;1.90;;;;;;;16.69;46.72;101786.00;117271;1185;23656;-57
2022/02/27 10:13:50;;;;;;;5.20;1.60;;;;;;;16.73;46.31;101785.23;117349;1182;22399;-57
2022/02/27 10:16:23;;;;;;;4.30;1.50;;;;;;;16.57;45.94;101783.34;117318;1182;23553;-57
2022/02/27 10:18:59;;;;;;;4.00;1.30;;;;;;;16.31;45.60;101787.09;117326;1188;24608;-57
2022/02/27 10:21:47;;;;;;;3.60;1.40;;;;;;;16.18;46.09;101789.36;117299;1188;21879;-57
2022/02/27 10:24:18;;;;;;;4.40;1.50;;;;;;;16.28;46.19;101787.83;117335;1183;24227;-57
2022/02/27 10:26:48;;;;;;;2.00;0.90;;;;;;;16.49;46.47;101783.98;117189;1186;23440;-58
2022/02/27 10:29:17;;;;;;;3.90;1.30;;;;;;;16.85;46.43;101774.41;117336;1185;23541;-58
2022/02/27 10:31:46;;;;;;;3.00;1.00;;;;;;;17.20;46.45;101774.89;117358;1182;23436;-58
2022/02/27 10:34:24;;;;;;;3.20;1.00;;;;;;;17.53;46.46;101768.27;117377;1185;24146;-58
2022/02/27 10:37:05;;;;;;;3.00;1.30;;;;;;;17.89;46.56;101770.58;117354;1184;21858;-58
2022/02/27 10:39:48;;;;;;;4.30;1.30;;;;;;;18.10;46.05;101762.70;117355;1185;21875;-58
2022/02/27 10:42:21;;;;;;;5.20;1.20;;;;;;;17.99;45.33;101764.88;117378;1183;23557;-58
2022/02/27 10:44:59;;;;;;;2.50;1.30;;;;;;;17.82;45.69;101771.60;117343;1182;24249;-58
2022/02/27 10:47:40;;;;;;;2.60;1.10;;;;;;;17.73;45.56;101768.23;117351;1184;23438;-58
2022/02/27 10:50:14;;;;;;;2.80;1.10;;;;;;;17.64;45.51;101770.36;117319;1181;24160;-58
2022/02/27 10:52:44;;;;;;;4.30;1.40;;;;;;;17.40;45.20;101771.70;117310;1187;21943;-57
2022/02/27 10:55:13;;;;;;;;;;;;;;;17.02;44.89;101771.13;117369;1185;21832;-58
2022/02/27 10:57:45;;;;;;;3.40;1.00;;;;;;;16.73;44.82;101772.28;117345;1184;22625;-57
2022/02/27 11:00:13;;;;;;;3.00;1.10;;;;;;;16.58;45.03;101764.01;117292;1185;24230;-58
2022/02/27 11:02:42;;;;;;;3.80;1.20;;;;;;;16.56;44.97;101764.73;117331;1185;23561;-59
2022/02/27 11:05:13;;;;;;;2.90;1.00;;;;;;;16.69;44.95;101757.65;117375;1182;21845;-57
2022/02/27 11:07:43;;;;;;;3.90;1.00;;;;;;;16.89;44.79;101758.02;117321;1184;23423;-58
2022/02/27 11:10:36;;;;;;;2.60;1.10;;;;;;;16.87;44.29;101760.19;117270;1182;24207;-58
2022/02/27 11:13:06;;;;;;;4.50;1.20;;;;;;;16.65;44.05;101758.95;117330;1185;21858;-57
2022/02/27 11:15:35;;;;;;;4.70;1.60;;;;;;;16.30;43.47;101765.13;117331;1182;23622;-58
2022/02/27 11:18:04;;;;;;;3.50;1.40;;;;;;;15.85;43.22;101765.69;117561;1185;24203;-58
2022/02/27 11:20:33;;;;;;;4.40;2.10;;;;;;;15.41;43.29;101771.65;117276;1182;22654;-58
2022/02/27 11:23:01;;;;;;;3.60;1.10;;;;;;;14.97;42.84;101775.77;117377;1183;21839;-57
2022/02/27 11:25:30;;;;;;;5.20;1.20;;;;;;;14.55;42.70;101774.80;117256;1186;24160;-58
2022/02/27 11:28:11;;;;;;;9.70;3.40;;;;;;;14.24;43.01;101781.52;117353;1185;22622;-59
2022/02/27 11:30:40;;;;;;;3.70;1.40;;;;;;;13.99;43.28;101773.52;117365;1183;23463;-58
2022/02/27 11:33:19;;;;;;;6.70;2.30;;;;;;;13.98;43.58;101776.69;117375;1185;21859;-58